createdAt,value
2018-06-11T00:00:22.241Z,1005.22
2018-06-11T00:01:22.233Z,1005.21
2018-06-11T00:02:22.218Z,1005.20
2018-06-11T00:03:22.199Z,1005.18
2018-06-11T00:04:22.204Z,1005.15
2018-06-11T00:05:22.178Z,1005.15
2018-06-11T00:06:22.157Z,1005.12
2018-06-11T00:07:22.152Z,1005.16
2018-06-11T00:08:22.137Z,1005.14
2018-06-11T00:09:22.122Z,1005.16
2018-06-11T00:10:22.104Z,1005.17
2018-06-11T00:11:22.091Z,1005.13
2018-06-11T00:12:22.080Z,1005.17
2018-06-11T00:13:22.062Z,1005.12
2018-06-11T00:14:22.049Z,1005.16
2018-06-11T00:15:22.034Z,1005.15
2018-06-11T00:16:22.021Z,1005.15
2018-06-11T00:17:22.013Z,1005.20
2018-06-11T00:18:21.993Z,1005.21
2018-06-11T00:19:21.983Z,1005.23
2018-06-11T00:20:21.968Z,1005.25
2018-06-11T00:21:21.953Z,1005.23
2018-06-11T00:22:21.947Z,1005.22
2018-06-11T00:23:21.930Z,1005.21
2018-06-11T00:24:21.914Z,1005.18
2018-06-11T00:25:21.896Z,1005.16
2018-06-11T00:26:21.888Z,1005.16
2018-06-11T00:27:21.869Z,1005.16
2018-06-11T00:28:21.881Z,1005.18
2018-06-11T00:29:21.842Z,1005.12
2018-06-11T00:30:21.826Z,1005.14
2018-06-11T00:31:21.812Z,1005.12
2018-06-11T00:32:21.800Z,1005.14
2018-06-11T00:33:21.787Z,1005.18
2018-06-11T00:34:21.769Z,1005.21
2018-06-11T00:35:21.756Z,1005.23
2018-06-11T00:36:21.743Z,1005.24
2018-06-11T00:37:21.726Z,1005.19
2018-06-11T00:38:21.739Z,1005.18
2018-06-11T00:39:21.703Z,1005.20
2018-06-11T00:40:21.694Z,1005.17
2018-06-11T00:41:21.679Z,1005.20
2018-06-11T00:42:21.665Z,1005.17
2018-06-11T00:43:21.645Z,1005.23
2018-06-11T00:44:21.631Z,1005.25
2018-06-11T00:45:21.620Z,1005.25
2018-06-11T00:46:21.602Z,1005.24
2018-06-11T00:47:21.591Z,1005.24
2018-06-11T00:48:21.592Z,1005.21
2018-06-11T00:49:21.570Z,1005.19
2018-06-11T00:50:21.553Z,1005.20
2018-06-11T00:51:21.539Z,1005.22
2018-06-11T00:52:21.521Z,1005.17
2018-06-11T00:53:21.514Z,1005.20
2018-06-11T00:54:21.498Z,1005.19
2018-06-11T00:55:21.497Z,1005.17
2018-06-11T00:56:21.465Z,1005.21
2018-06-11T00:57:21.457Z,1005.20
2018-06-11T00:58:21.438Z,1005.22
2018-06-11T00:59:21.431Z,1005.26
2018-06-11T01:00:21.423Z,1005.27
2018-06-11T01:01:21.400Z,1005.27
2018-06-11T01:02:21.385Z,1005.28
2018-06-11T01:03:21.373Z,1005.32
2018-06-11T01:04:21.353Z,1005.30
2018-06-11T01:05:21.343Z,1005.29
2018-06-11T01:06:21.333Z,1005.29
2018-06-11T01:07:21.348Z,1005.27
2018-06-11T01:08:21.306Z,1005.24
2018-06-11T01:09:21.284Z,1005.22
2018-06-11T01:10:21.272Z,1005.20
2018-06-11T01:11:21.258Z,1005.25
2018-06-11T01:12:21.249Z,1005.21
2018-06-11T01:13:21.230Z,1005.21
2018-06-11T01:14:21.220Z,1005.23
2018-06-11T01:15:21.205Z,1005.26
2018-06-11T01:16:21.189Z,1005.28
2018-06-11T01:17:21.184Z,1005.30
2018-06-11T01:18:21.154Z,1005.28
2018-06-11T01:19:21.145Z,1005.26
2018-06-11T01:20:21.187Z,1005.32
2018-06-11T01:21:21.131Z,1005.33
2018-06-11T01:22:21.106Z,1005.35
2018-06-11T01:23:21.090Z,1005.36
2018-06-11T01:24:21.080Z,1005.33
2018-06-11T01:25:21.066Z,1005.33
2018-06-11T01:26:21.045Z,1005.30
2018-06-11T01:27:21.038Z,1005.29
2018-06-11T01:28:21.018Z,1005.28
2018-06-11T01:29:21.002Z,1005.25
2018-06-11T01:30:20.987Z,1005.29
2018-06-11T01:31:20.977Z,1005.28
2018-06-11T01:32:20.971Z,1005.27
2018-06-11T01:33:20.953Z,1005.26
2018-06-11T01:34:20.935Z,1005.25
2018-06-11T01:35:20.925Z,1005.24
2018-06-11T01:36:20.910Z,1005.22
2018-06-11T01:37:20.893Z,1005.25
2018-06-11T01:38:20.881Z,1005.21
2018-06-11T01:39:20.864Z,1005.21
2018-06-11T01:40:20.854Z,1005.20
2018-06-11T01:41:20.840Z,1005.18
2018-06-11T01:42:20.826Z,1005.20
2018-06-11T01:43:20.815Z,1005.17
2018-06-11T01:44:20.792Z,1005.17
2018-06-11T01:45:20.780Z,1005.14
2018-06-11T01:46:20.770Z,1005.16
2018-06-11T01:47:20.754Z,1005.06
2018-06-11T01:48:20.744Z,1005.11
2018-06-11T01:49:20.728Z,1005.12
2018-06-11T01:50:20.709Z,1005.11
2018-06-11T01:51:20.695Z,1005.11
2018-06-11T01:52:20.687Z,1005.08
2018-06-11T01:53:20.675Z,1005.06
2018-06-11T01:54:20.659Z,1005.09
2018-06-11T01:55:20.634Z,1005.06
2018-06-11T01:56:20.627Z,1005.05
2018-06-11T01:57:20.616Z,1005.05
2018-06-11T01:58:20.594Z,1005.06
2018-06-11T01:59:20.585Z,1005.04
2018-06-11T02:00:20.575Z,1005.03
2018-06-11T02:01:20.555Z,1005.01
2018-06-11T02:02:20.546Z,1004.95
2018-06-11T02:03:20.527Z,1004.90
2018-06-11T02:04:20.512Z,1004.91
2018-06-11T02:05:20.493Z,1004.85
2018-06-11T02:06:20.490Z,1004.88
2018-06-11T02:07:20.471Z,1004.81
2018-06-11T02:08:20.456Z,1004.82
2018-06-11T02:09:20.446Z,1004.84
2018-06-11T02:10:20.430Z,1004.84
2018-06-11T02:11:20.409Z,1004.84
2018-06-11T02:12:20.401Z,1004.80
2018-06-11T02:13:20.390Z,1004.83
2018-06-11T02:14:20.375Z,1004.82
2018-06-11T02:15:20.355Z,1004.82
2018-06-11T02:16:20.350Z,1004.83
2018-06-11T02:17:20.326Z,1004.84
2018-06-11T02:18:20.315Z,1004.80
2018-06-11T02:19:20.296Z,1004.82
2018-06-11T02:20:20.286Z,1004.79
2018-06-11T02:21:20.270Z,1004.80
2018-06-11T02:22:20.258Z,1004.80
2018-06-11T02:23:20.239Z,1004.78
2018-06-11T02:24:20.232Z,1004.81
2018-06-11T02:25:20.217Z,1004.82
2018-06-11T02:26:20.195Z,1004.81
2018-06-11T02:27:20.181Z,1004.81
2018-06-11T02:28:20.171Z,1004.88
2018-06-11T02:29:20.161Z,1004.85
2018-06-11T02:30:20.147Z,1004.86
2018-06-11T02:31:20.131Z,1004.85
2018-06-11T02:32:20.114Z,1004.84
2018-06-11T02:33:20.108Z,1004.83
2018-06-11T02:34:20.082Z,1004.79
2018-06-11T02:35:20.070Z,1004.76
2018-06-11T02:36:20.057Z,1004.75
2018-06-11T02:37:20.044Z,1004.75
2018-06-11T02:38:20.029Z,1004.71
2018-06-11T02:39:20.018Z,1004.69
2018-06-11T02:40:20.000Z,1004.69
2018-06-11T02:41:20.024Z,1004.66
2018-06-11T02:42:20.011Z,1004.61
2018-06-11T02:43:20.019Z,1004.59
2018-06-11T02:44:20.029Z,1004.55
2018-06-11T02:45:19.926Z,1004.56
2018-06-11T02:46:19.912Z,1004.57
2018-06-11T02:47:19.940Z,1004.56
2018-06-11T02:48:19.903Z,1004.58
2018-06-11T02:49:19.876Z,1004.62
2018-06-11T02:50:19.855Z,1004.58
2018-06-11T02:51:19.854Z,1004.58
2018-06-11T02:52:19.832Z,1004.61
2018-06-11T02:53:19.817Z,1004.61
2018-06-11T02:54:19.811Z,1004.60
2018-06-11T02:55:19.786Z,1004.60
2018-06-11T02:56:19.774Z,1004.63
2018-06-11T02:57:19.772Z,1004.63
2018-06-11T02:58:19.760Z,1004.65
2018-06-11T02:59:19.731Z,1004.66
2018-06-11T03:00:19.717Z,1004.67
2018-06-11T03:01:19.699Z,1004.67
2018-06-11T03:02:19.691Z,1004.66
2018-06-11T03:03:19.677Z,1004.65
2018-06-11T03:04:19.665Z,1004.64
2018-06-11T03:05:19.646Z,1004.63
2018-06-11T03:06:19.634Z,1004.63
2018-06-11T03:07:19.639Z,1004.67
2018-06-11T03:08:19.625Z,1004.66
2018-06-11T03:09:19.759Z,1004.64
2018-06-11T03:10:19.604Z,1004.66
2018-06-11T03:11:19.567Z,1004.66
2018-06-11T03:12:19.544Z,1004.61
2018-06-11T03:13:19.550Z,1004.59
2018-06-11T03:14:19.530Z,1004.61
2018-06-11T03:15:19.506Z,1004.56
2018-06-11T03:16:19.501Z,1004.56
2018-06-11T03:17:19.493Z,1004.54
2018-06-11T03:18:19.479Z,1004.51
2018-06-11T03:19:19.449Z,1004.55
2018-06-11T03:20:19.435Z,1004.52
2018-06-11T03:21:19.483Z,1004.51
2018-06-11T03:22:19.411Z,1004.51
2018-06-11T03:23:19.391Z,1004.51
2018-06-11T03:24:19.385Z,1004.51
2018-06-11T03:25:19.372Z,1004.52
2018-06-11T03:26:19.357Z,1004.53
2018-06-11T03:27:19.345Z,1004.53
2018-06-11T03:28:19.331Z,1004.54
2018-06-11T03:29:19.315Z,1004.56
2018-06-11T03:30:19.297Z,1004.54
2018-06-11T03:31:19.286Z,1004.56
2018-06-11T03:32:19.269Z,1004.62
2018-06-11T03:33:19.258Z,1004.60
2018-06-11T03:34:19.243Z,1004.66
2018-06-11T03:35:19.226Z,1004.60
2018-06-11T03:36:19.211Z,1004.70
2018-06-11T03:37:19.198Z,1004.65
2018-06-11T03:38:19.213Z,1004.68
2018-06-11T03:39:19.173Z,1004.67
2018-06-11T03:40:19.163Z,1004.73
2018-06-11T03:41:19.148Z,1004.71
2018-06-11T03:42:19.135Z,1004.73
2018-06-11T03:43:19.184Z,1004.78
2018-06-11T03:44:19.340Z,1004.80
2018-06-11T03:45:19.084Z,1004.81
2018-06-11T03:46:19.088Z,1004.80
2018-06-11T03:47:19.054Z,1004.82
2018-06-11T03:48:19.046Z,1004.87
2018-06-11T03:49:19.035Z,1004.83
2018-06-11T03:50:19.022Z,1004.89
2018-06-11T03:51:19.009Z,1004.89
2018-06-11T03:52:18.994Z,1004.86
2018-06-11T03:53:18.972Z,1004.89
2018-06-11T03:54:18.960Z,1004.89
2018-06-11T03:55:18.953Z,1004.86
2018-06-11T03:56:18.940Z,1004.87
2018-06-11T03:57:18.928Z,1004.92
2018-06-11T03:58:18.909Z,1004.92
2018-06-11T03:59:18.901Z,1004.95
2018-06-11T04:00:18.905Z,1004.97
2018-06-11T04:01:18.868Z,1005.00
2018-06-11T04:02:18.851Z,1004.99
2018-06-11T04:03:18.834Z,1005.03
2018-06-11T04:04:18.817Z,1005.00
2018-06-11T04:05:18.826Z,1004.98
2018-06-11T04:06:18.822Z,1005.00
2018-06-11T04:07:18.778Z,1004.99
2018-06-11T04:08:18.765Z,1004.99
2018-06-11T04:09:18.752Z,1005.00
2018-06-11T04:10:18.738Z,1004.99
2018-06-11T04:11:18.724Z,1004.96
2018-06-11T04:12:18.710Z,1005.05
2018-06-11T04:13:18.701Z,1005.02
2018-06-11T04:14:18.687Z,1005.01
2018-06-11T04:15:18.672Z,1005.01
2018-06-11T04:16:18.652Z,1005.09
2018-06-11T04:17:18.646Z,1005.05
2018-06-11T04:18:18.623Z,1005.08
2018-06-11T04:19:18.611Z,1005.11
2018-06-11T04:20:18.600Z,1005.06
2018-06-11T04:21:18.585Z,1005.08
2018-06-11T04:22:18.576Z,1005.05
2018-06-11T04:23:18.557Z,1005.08
2018-06-11T04:24:18.551Z,1005.11
2018-06-11T04:25:18.531Z,1005.14
2018-06-11T04:26:18.517Z,1005.13
2018-06-11T04:27:18.508Z,1005.15
2018-06-11T04:28:18.489Z,1005.14
2018-06-11T04:29:18.473Z,1005.20
2018-06-11T04:30:18.464Z,1005.16
2018-06-11T04:31:18.454Z,1005.17
2018-06-11T04:32:18.435Z,1005.20
2018-06-11T04:33:18.416Z,1005.23
2018-06-11T04:34:18.406Z,1005.20
2018-06-11T04:35:18.402Z,1005.20
2018-06-11T04:36:18.405Z,1005.20
2018-06-11T04:37:18.358Z,1005.20
2018-06-11T04:38:18.369Z,1005.19
2018-06-11T04:39:18.341Z,1005.21
2018-06-11T04:40:18.314Z,1005.27
2018-06-11T04:41:18.343Z,1005.24
2018-06-11T04:42:18.290Z,1005.25
2018-06-11T04:43:18.273Z,1005.21
2018-06-11T04:44:18.271Z,1005.23
2018-06-11T04:45:18.271Z,1005.25
2018-06-11T04:46:18.319Z,1005.25
2018-06-11T04:47:18.227Z,1005.20
2018-06-11T04:48:18.210Z,1005.22
2018-06-11T04:49:18.207Z,1005.16
2018-06-11T04:50:18.182Z,1005.23
2018-06-11T04:51:18.167Z,1005.21
2018-06-11T04:52:18.164Z,1005.24
2018-06-11T04:53:18.147Z,1005.27
2018-06-11T04:54:18.124Z,1005.24
2018-06-11T04:55:18.115Z,1005.24
2018-06-11T04:56:18.143Z,1005.17
2018-06-11T04:57:18.084Z,1005.25
2018-06-11T04:58:18.066Z,1005.24
2018-06-11T04:59:18.076Z,1005.20
2018-06-11T05:00:18.058Z,1005.23
2018-06-11T05:01:18.035Z,1005.19
2018-06-11T05:02:18.023Z,1005.22
2018-06-11T05:03:17.998Z,1005.20
2018-06-11T05:04:18.056Z,1005.16
2018-06-11T05:05:17.979Z,1005.26
2018-06-11T05:06:17.972Z,1005.19
2018-06-11T05:07:17.956Z,1005.20
2018-06-11T05:08:17.939Z,1005.22
2018-06-11T05:09:17.995Z,1005.25
2018-06-11T05:10:17.913Z,1005.24
2018-06-11T05:11:17.881Z,1005.20
2018-06-11T05:12:17.908Z,1005.21
2018-06-11T05:13:17.862Z,1005.19
2018-06-11T05:14:17.862Z,1005.19
2018-06-11T05:15:17.865Z,1005.18
2018-06-11T05:16:17.854Z,1005.13
2018-06-11T05:17:17.827Z,1005.14
2018-06-11T05:18:17.800Z,1005.22
2018-06-11T05:19:17.792Z,1005.16
2018-06-11T05:20:17.767Z,1005.09
2018-06-11T05:21:17.812Z,1005.07
2018-06-11T05:22:17.739Z,1005.05
2018-06-11T05:23:17.720Z,1005.07
2018-06-11T05:24:17.711Z,1005.07
2018-06-11T05:25:17.719Z,1005.02
2018-06-11T05:26:17.680Z,1005.05
2018-06-11T05:27:17.678Z,1005.08
2018-06-11T05:28:17.712Z,1005.09
2018-06-11T05:29:17.637Z,1005.11
2018-06-11T05:30:17.621Z,1005.07
2018-06-11T05:31:17.618Z,1005.09
2018-06-11T05:32:17.601Z,1005.08
2018-06-11T05:33:17.704Z,1005.03
2018-06-11T05:34:17.629Z,1005.04
2018-06-11T05:35:17.564Z,1005.04
2018-06-11T05:36:17.553Z,1005.06
2018-06-11T05:37:17.544Z,1005.06
2018-06-11T05:38:17.521Z,1005.03
2018-06-11T05:39:17.513Z,1005.07
2018-06-11T05:40:17.555Z,1005.11
2018-06-11T05:41:17.501Z,1005.09
2018-06-11T05:42:17.459Z,1005.10
2018-06-11T05:43:17.448Z,1005.12
2018-06-11T05:44:17.435Z,1005.09
2018-06-11T05:45:17.419Z,1005.03
2018-06-11T05:46:17.423Z,1005.05
2018-06-11T05:47:17.408Z,1005.09
2018-06-11T05:48:17.382Z,1005.10
2018-06-11T05:49:17.384Z,1005.18
2018-06-11T05:50:17.359Z,1005.18
2018-06-11T05:51:17.370Z,1005.29
2018-06-11T05:52:17.342Z,1005.27
2018-06-11T05:53:17.323Z,1005.26
2018-06-11T05:54:17.304Z,1005.32
2018-06-11T05:55:17.285Z,1005.34
2018-06-11T05:56:17.275Z,1005.36
2018-06-11T05:57:17.261Z,1005.33
2018-06-11T05:58:17.241Z,1005.31
2018-06-11T05:59:17.240Z,1005.33
2018-06-11T06:00:17.222Z,1005.31
2018-06-11T06:01:17.198Z,1005.34
2018-06-11T06:02:17.211Z,1005.31
2018-06-11T06:03:17.180Z,1005.32
2018-06-11T06:04:17.165Z,1005.38
2018-06-11T06:05:17.165Z,1005.33
2018-06-11T06:06:17.140Z,1005.37
2018-06-11T06:07:17.112Z,1005.38
2018-06-11T06:08:17.105Z,1005.37
2018-06-11T06:09:17.093Z,1005.39
2018-06-11T06:10:17.082Z,1005.44
2018-06-11T06:11:17.090Z,1005.47
2018-06-11T06:12:17.058Z,1005.48
2018-06-11T06:13:17.041Z,1005.43
2018-06-11T06:14:17.026Z,1005.48
2018-06-11T06:15:17.036Z,1005.50
2018-06-11T06:16:17.031Z,1005.50
2018-06-11T06:17:16.990Z,1005.54
2018-06-11T06:18:16.968Z,1005.50
2018-06-11T06:19:16.971Z,1005.51
2018-06-11T06:20:16.971Z,1005.51
2018-06-11T06:21:16.957Z,1005.55
2018-06-11T06:22:16.928Z,1005.55
2018-06-11T06:23:16.979Z,1005.48
2018-06-11T06:24:16.896Z,1005.51
2018-06-11T06:25:16.901Z,1005.46
2018-06-11T06:26:16.894Z,1005.46
2018-06-11T06:27:16.855Z,1005.46
2018-06-11T06:28:16.843Z,1005.45
2018-06-11T06:29:16.825Z,1005.45
2018-06-11T06:30:16.816Z,1005.43
2018-06-11T06:31:16.806Z,1005.49
2018-06-11T06:32:16.788Z,1005.53
2018-06-11T06:33:16.774Z,1005.52
2018-06-11T06:34:16.911Z,1005.54
2018-06-11T06:35:16.756Z,1005.55
2018-06-11T06:36:16.746Z,1005.58
2018-06-11T06:37:16.737Z,1005.58
2018-06-11T06:38:16.736Z,1005.57
2018-06-11T06:39:16.697Z,1005.61
2018-06-11T06:40:16.690Z,1005.59
2018-06-11T06:41:16.672Z,1005.60
2018-06-11T06:42:16.685Z,1005.60
2018-06-11T06:43:16.653Z,1005.65
2018-06-11T06:44:16.640Z,1005.63
2018-06-11T06:45:16.635Z,1005.66
2018-06-11T06:46:16.612Z,1005.65
2018-06-11T06:47:16.617Z,1005.64
2018-06-11T06:48:16.589Z,1005.62
2018-06-11T06:49:16.611Z,1005.63
2018-06-11T06:50:16.606Z,1005.60
2018-06-11T06:51:16.545Z,1005.61
2018-06-11T06:52:16.535Z,1005.67
2018-06-11T06:53:16.525Z,1005.67
2018-06-11T06:54:16.511Z,1005.68
2018-06-11T06:55:16.505Z,1005.70
2018-06-11T06:56:16.504Z,1005.68
2018-06-11T06:57:16.492Z,1005.71
2018-06-11T06:58:16.466Z,1005.71
2018-06-11T06:59:16.448Z,1005.74
2018-06-11T07:00:16.438Z,1005.76
2018-06-11T07:01:16.423Z,1005.70
2018-06-11T07:02:16.422Z,1005.73
2018-06-11T07:03:16.409Z,1005.69
2018-06-11T07:04:16.397Z,1005.72
2018-06-11T07:05:16.382Z,1005.74
2018-06-11T07:06:16.369Z,1005.77
2018-06-11T07:07:16.357Z,1005.73
2018-06-11T07:08:16.357Z,1005.73
2018-06-11T07:09:16.325Z,1005.71
2018-06-11T07:10:16.350Z,1005.74
2018-06-11T07:11:16.368Z,1005.68
2018-06-11T07:12:16.295Z,1005.69
2018-06-11T07:13:16.297Z,1005.72
2018-06-11T07:14:16.289Z,1005.74
2018-06-11T07:15:16.279Z,1005.76
2018-06-11T07:16:16.248Z,1005.77
2018-06-11T07:17:16.251Z,1005.68
2018-06-11T07:18:16.218Z,1005.74
2018-06-11T07:19:16.231Z,1005.75
2018-06-11T07:20:16.225Z,1005.73
2018-06-11T07:21:16.221Z,1005.71
2018-06-11T07:22:16.183Z,1005.68
2018-06-11T07:23:16.171Z,1005.72
2018-06-11T07:24:16.148Z,1005.71
2018-06-11T07:25:16.148Z,1005.65
2018-06-11T07:26:16.148Z,1005.76
2018-06-11T07:27:16.128Z,1005.77
2018-06-11T07:28:16.109Z,1005.79
2018-06-11T07:29:16.109Z,1005.84
2018-06-11T07:30:16.090Z,1005.84
2018-06-11T07:31:16.136Z,1005.78
2018-06-11T07:32:16.079Z,1005.73
2018-06-11T07:33:16.045Z,1005.75
2018-06-11T07:34:16.149Z,1005.75
2018-06-11T07:35:16.053Z,1005.70
2018-06-11T07:36:16.116Z,1005.74
2018-06-11T07:37:15.994Z,1005.67
2018-06-11T07:38:16.001Z,1005.73
2018-06-11T07:39:16.004Z,1005.96
2018-06-11T07:40:15.989Z,1005.96
2018-06-11T07:41:15.976Z,1005.92
2018-06-11T07:42:15.973Z,1005.80
2018-06-11T07:43:15.949Z,1005.71
2018-06-11T07:44:15.949Z,1005.76
2018-06-11T07:45:15.939Z,1005.81
2018-06-11T07:46:15.920Z,1005.78
2018-06-11T07:47:15.924Z,1005.79
2018-06-11T07:48:15.926Z,1005.81
2018-06-11T07:49:15.878Z,1005.82
2018-06-11T07:50:15.905Z,1005.78
2018-06-11T07:51:15.880Z,1005.86
2018-06-11T07:52:15.847Z,1005.82
2018-06-11T07:53:15.869Z,1005.84
2018-06-11T07:54:15.850Z,1005.91
2018-06-11T07:55:15.824Z,1005.92
2018-06-11T07:56:15.987Z,1005.87
2018-06-11T07:57:15.862Z,1005.79
2018-06-11T07:58:15.795Z,1005.75
2018-06-11T07:59:15.792Z,1005.67
2018-06-11T08:00:15.782Z,1005.74
2018-06-11T08:01:15.777Z,1005.73
2018-06-11T08:02:15.780Z,1005.70
2018-06-11T08:03:15.766Z,1005.69
2018-06-11T08:04:15.743Z,1005.67
2018-06-11T08:05:15.763Z,1005.71
2018-06-11T08:06:15.726Z,1005.73
2018-06-11T08:07:15.715Z,1005.77
2018-06-11T08:08:15.713Z,1005.76
2018-06-11T08:09:15.709Z,1005.81
2018-06-11T08:10:15.730Z,1005.81
2018-06-11T08:11:15.690Z,1005.75
2018-06-11T08:12:15.695Z,1005.77
2018-06-11T08:13:15.681Z,1005.75
2018-06-11T08:14:15.684Z,1005.76
2018-06-11T08:15:15.671Z,1005.78
2018-06-11T08:16:15.673Z,1005.80
2018-06-11T08:17:15.658Z,1005.77
2018-06-11T08:18:15.792Z,1005.81
2018-06-11T08:19:15.648Z,1005.78
2018-06-11T08:20:15.669Z,1005.79
2018-06-11T08:21:15.693Z,1005.79
2018-06-11T08:22:15.639Z,1005.77
2018-06-11T08:23:15.652Z,1005.78
2018-06-11T08:24:15.609Z,1005.79
2018-06-11T08:25:15.633Z,1005.77
2018-06-11T08:26:15.609Z,1005.75
2018-06-11T08:27:15.633Z,1005.71
2018-06-11T08:28:15.596Z,1005.63
2018-06-11T08:29:15.605Z,1005.64
2018-06-11T08:30:15.602Z,1005.60
2018-06-11T08:31:15.604Z,1005.64
2018-06-11T08:32:15.582Z,1005.58
2018-06-11T08:33:15.589Z,1005.61
2018-06-11T08:34:15.563Z,1005.59
2018-06-11T08:35:15.545Z,1005.60
2018-06-11T08:36:15.549Z,1005.65
2018-06-11T08:37:15.555Z,1005.64
2018-06-11T08:38:15.554Z,1005.63
2018-06-11T08:39:15.546Z,1005.60
2018-06-11T08:40:15.543Z,1005.59
2018-06-11T08:41:15.512Z,1005.60
2018-06-11T08:42:15.516Z,1005.54
2018-06-11T08:43:15.506Z,1005.51
2018-06-11T08:44:15.505Z,1005.49
2018-06-11T08:45:15.499Z,1005.50
2018-06-11T08:46:15.491Z,1005.50
2018-06-11T08:47:15.465Z,1005.45
2018-06-11T08:48:15.471Z,1005.48
2018-06-11T08:49:15.489Z,1005.51
2018-06-11T08:50:15.478Z,1005.53
2018-06-11T08:51:15.467Z,1005.50
2018-06-11T08:52:15.470Z,1005.46
2018-06-11T08:53:15.414Z,1005.48
2018-06-11T08:54:15.472Z,1005.46
2018-06-11T08:55:15.479Z,1005.42
2018-06-11T08:56:15.398Z,1005.41
2018-06-11T08:57:15.423Z,1005.39
2018-06-11T08:58:15.377Z,1005.32
2018-06-11T08:59:16.305Z,1005.36
2018-06-11T09:00:15.359Z,1005.36
2018-06-11T09:01:15.334Z,1005.31
2018-06-11T09:02:15.348Z,1005.36
2018-06-11T09:03:15.360Z,1005.36
2018-06-11T09:04:15.353Z,1005.37
2018-06-11T09:05:15.316Z,1005.37
2018-06-11T09:06:15.315Z,1005.29
2018-06-11T09:07:15.288Z,1005.30
2018-06-11T09:08:15.311Z,1005.29
2018-06-11T09:09:15.281Z,1005.36
2018-06-11T09:10:15.258Z,1005.35
2018-06-11T09:11:15.305Z,1005.42
2018-06-11T09:12:15.253Z,1005.42
2018-06-11T09:13:15.225Z,1005.41
2018-06-11T09:14:15.248Z,1005.38
2018-06-11T09:15:15.215Z,1005.44
2018-06-11T09:16:15.210Z,1005.43
2018-06-11T09:17:15.214Z,1005.45
2018-06-11T09:18:15.279Z,1005.45
2018-06-11T09:19:15.173Z,1005.34
2018-06-11T09:20:15.157Z,1005.36
2018-06-11T09:21:15.141Z,1005.38
2018-06-11T09:22:15.140Z,1005.23
2018-06-11T09:23:15.137Z,1005.35
2018-06-11T09:24:15.122Z,1005.30
2018-06-11T09:25:15.141Z,1005.30
2018-06-11T09:26:15.150Z,1005.24
2018-06-11T09:27:15.070Z,1005.25
2018-06-11T09:28:15.070Z,1005.29
2018-06-11T09:29:15.091Z,1005.24
2018-06-11T09:30:15.073Z,1005.23
2018-06-11T09:31:15.035Z,1005.26
2018-06-11T09:32:15.028Z,1005.23
2018-06-11T09:33:15.010Z,1005.26
2018-06-11T09:34:15.013Z,1005.24
2018-06-11T09:35:15.010Z,1005.26
2018-06-11T09:36:14.994Z,1005.24
2018-06-11T09:37:14.981Z,1005.20
2018-06-11T09:38:15.008Z,1005.23
2018-06-11T09:39:14.993Z,1005.22
2018-06-11T09:40:15.048Z,1005.27
2018-06-11T09:41:14.965Z,1005.24
2018-06-11T09:42:14.931Z,1005.23
2018-06-11T09:43:14.950Z,1005.30
2018-06-11T09:44:14.945Z,1005.29
2018-06-11T09:45:14.919Z,1005.33
2018-06-11T09:46:14.871Z,1005.29
2018-06-11T09:47:14.878Z,1005.27
2018-06-11T09:48:14.856Z,1005.29
2018-06-11T09:49:14.848Z,1005.30
2018-06-11T09:50:14.863Z,1005.35
2018-06-11T09:51:14.877Z,1005.36
2018-06-11T09:52:14.891Z,1005.42
2018-06-11T09:53:15.344Z,1005.41
2018-06-11T09:54:14.807Z,1005.43
2018-06-11T09:55:14.769Z,1005.41
2018-06-11T09:56:14.773Z,1005.40
2018-06-11T09:57:15.328Z,1005.41
2018-06-11T09:58:14.742Z,1005.46
2018-06-11T09:59:14.734Z,1005.45
2018-06-11T10:00:14.730Z,1005.46
2018-06-11T10:01:14.716Z,1005.38
2018-06-11T10:02:14.725Z,1005.49
2018-06-11T10:03:14.692Z,1005.46
2018-06-11T10:04:14.687Z,1005.43
2018-06-11T10:05:14.669Z,1005.43
2018-06-11T10:06:14.761Z,1005.43
2018-06-11T10:07:14.661Z,1005.44
2018-06-11T10:08:14.667Z,1005.43
2018-06-11T10:09:14.676Z,1005.42
2018-06-11T10:10:14.626Z,1005.40
2018-06-11T10:13:22.832Z,1005.43
